Peyton, Colorado
Current Conditions -  °F | °C
As of 7:54 AM on Sunday 21 Dec 2014 (Local Time) from KFLY Reporting Station
Scattered Clouds Scattered Clouds  
Wind Chill: 32°   Ceiling: Unl
Heat Index: 32°   Visibility: 10mi
Dew Point: 16°   Wind: 3mph
Humidity: 52%   Direction: 250°WSW
Pressure: 29.76"   Gusts: NA
Location:  39.03°N, 104.48°W
Report Text: KFLY 211454Z AUTO 25003KT 10SM SCT120 00/M09 A2976 RMK AO2 T00011087
Loading
Personal Weather Stations






























Interactive Weather Map New forecast layout! Learn more

10-Day Weather Forecast

Advertisements
Track Severe Weather on mobile